Lawrence, KS (66049)

11:16 AM CDT on October 02, 2014 (GMT -0500)
Andover Street | Change Station
CLOSE
Current Station
Personal Weather Station
Location: Lawrence, KS
Elevation: 1007 ft
Nearby Weather Stations
Active Advisory: Severe Thunderstorm Watch Active Notice: Local Storm Report

Elev 1007 ft 38.97 °N, 95.29 °W | Updated 3 minutes ago

Overcast
Overcast
67.5 °F
Feels Like 67.5 °F
N
3.7
Wind Variable Wind from NW

Today
High -- | Low -- °F
--% Chance of Precip.
Yesterday
High -- | Low -- °F
Precip. -- in
7:18 AM 7:02 PM
First Quarter, 60% visible
Pressure 29.75 in
Visibility 8.0 miles
Clouds Mostly Cloudy 1200 ft
Overcast 1700 ft
Dew Point 66 °F
Humidity 96%
Rainfall 1.12 in
Snow Depth Not available.
UV 1 out of 12
Pollen .50 out of 12
Air Quality Not available.
Flu Activity Not available.
SPECI KLWC 021601Z AUTO 22005KT 8SM VCTS BKN012 OVC017 20/19 A2975 RMK AO2 LTG DSNT ALQDS RAE01 PRESRR P0000 T02000189 $

More Conditions Fewer Conditions

Pressure 29.75 in
Visibility 8.0 miles
Clouds Mostly Cloudy 1200 ft
Overcast 1700 ft
Dew Point 66 °F
Humidity 96%
Rainfall 1.12 in
Snow Depth Not available.
UV 1 out of 12
Pollen .50 out of 12
Air Quality Not available.
Flu Activity Not available.
SPECI KLWC 021601Z AUTO 22005KT 8SM VCTS BKN012 OVC017 20/19 A2975 RMK AO2 LTG DSNT ALQDS RAE01 PRESRR P0000 T02000189 $

More Conditions Fewer Conditions

10-Day Weather Forecast

Almanac

Astronomy

Oct. 02, 2014 Rise Set
Actual Time 7:18 AM CDT 7:02 PM CDT
Civil Twilight 6:51 AM CDT 7:28 PM CDT
Nautical Twilight 6:20 AM CDT 7:59 PM CDT
Astronomical Twilight 5:49 AM CDT 8:30 PM CDT
Moon 3:06 PM CDT 12:38 AM CDT
Length of Visible Light 12h 37m
Length of Day
11h 44m
Tomorrow will be 2m 30s shorter.
First Quarter, 60% of the Moon is Illuminated
Today
First Quarter
Oct 8
Full
Oct 15
Last Quarter
Oct 23
New
Oct 30
First Quarter

Today's Extremes

State Highs State Lows

Community

WunderPhotos

Upload Photos

1,758,290 photos uploaded!

WunderBlogs® & News

Nearby

Snow Depth

Station Depth Elevation
No new snow has been reported.

Earthquake Activity

City Distance Mag. Time & Date
Parsons, Kansas 109 miles 3.0 7:33 PM CDT
2014-09-30
Minimum magnitude displayed is 2.5.

Coastal Water Temperatures

Place Temperature
No Stations Reporting

Nearby Weather Stations